sensor_id;sensor_type;location;lat;lon;timestamp;P1;durP1;ratioP1;P2;durP2;ratioP2
66751;SDS011;53663;42.676;23.238;2022-11-20T00:01:48;5.40;;;1.77;;
66751;SDS011;53663;42.676;23.238;2022-11-20T00:04:13;4.47;;;1.50;;
66751;SDS011;53663;42.676;23.238;2022-11-20T00:06:39;3.47;;;1.40;;
66751;SDS011;53663;42.676;23.238;2022-11-20T00:09:04;3.28;;;1.55;;
66751;SDS011;53663;42.676;23.238;2022-11-20T00:11:32;3.22;;;1.50;;
66751;SDS011;53663;42.676;23.238;2022-11-20T00:13:58;5.32;;;2.00;;
66751;SDS011;53663;42.676;23.238;2022-11-20T00:16:26;4.93;;;1.35;;
66751;SDS011;53663;42.676;23.238;2022-11-20T00:18:53;9.30;;;1.90;;
66751;SDS011;53663;42.676;23.238;2022-11-20T00:21:20;3.30;;;1.50;;
66751;SDS011;53663;42.676;23.238;2022-11-20T00:23:48;4.38;;;1.58;;
66751;SDS011;53663;42.676;23.238;2022-11-20T00:26:15;3.45;;;1.52;;
66751;SDS011;53663;42.676;23.238;2022-11-20T00:28:42;12.68;;;1.60;;
66751;SDS011;53663;42.676;23.238;2022-11-20T00:31:10;6.60;;;1.60;;
66751;SDS011;53663;42.676;23.238;2022-11-20T00:33:37;8.45;;;2.22;;
66751;SDS011;53663;42.676;23.238;2022-11-20T00:36:04;3.15;;;1.45;;
66751;SDS011;53663;42.676;23.238;2022-11-20T00:38:31;10.05;;;1.40;;
66751;SDS011;53663;42.676;23.238;2022-11-20T00:40:58;4.65;;;1.65;;
66751;SDS011;53663;42.676;23.238;2022-11-20T00:43:25;4.07;;;1.30;;
66751;SDS011;53663;42.676;23.238;2022-11-20T00:45:55;7.68;;;1.85;;
66751;SDS011;53663;42.676;23.238;2022-11-20T00:48:27;5.82;;;1.50;;
66751;SDS011;53663;42.676;23.238;2022-11-20T00:50:53;2.75;;;1.50;;
66751;SDS011;53663;42.676;23.238;2022-11-20T00:53:20;2.38;;;1.17;;
66751;SDS011;53663;42.676;23.238;2022-11-20T00:55:59;2.95;;;1.58;;
66751;SDS011;53663;42.676;23.238;2022-11-20T00:58:28;5.47;;;1.83;;
66751;SDS011;53663;42.676;23.238;2022-11-20T01:01:05;3.05;;;1.48;;
66751;SDS011;53663;42.676;23.238;2022-11-20T01:03:36;5.20;;;1.60;;
66751;SDS011;53663;42.676;23.238;2022-11-20T01:06:09;3.47;;;1.60;;
66751;SDS011;53663;42.676;23.238;2022-11-20T01:11:12;3.22;;;1.40;;
66751;SDS011;53663;42.676;23.238;2022-11-20T01:13:42;7.82;;;1.40;;
66751;SDS011;53663;42.676;23.238;2022-11-20T01:18:40;6.22;;;1.25;;
66751;SDS011;53663;42.676;23.238;2022-11-20T01:21:11;6.38;;;1.83;;
66751;SDS011;53663;42.676;23.238;2022-11-20T01:23:39;4.32;;;1.42;;
66751;SDS011;53663;42.676;23.238;2022-11-20T01:26:07;3.55;;;1.50;;
66751;SDS011;53663;42.676;23.238;2022-11-20T01:28:35;6.35;;;1.60;;
66751;SDS011;53663;42.676;23.238;2022-11-20T01:31:01;5.30;;;1.80;;
66751;SDS011;53663;42.676;23.238;2022-11-20T01:33:35;7.53;;;1.58;;
66751;SDS011;53663;42.676;23.238;2022-11-20T01:36:03;6.10;;;1.38;;
66751;SDS011;53663;42.676;23.238;2022-11-20T01:38:30;7.60;;;1.60;;
66751;SDS011;53663;42.676;23.238;2022-11-20T01:40:56;7.43;;;1.50;;
66751;SDS011;53663;42.676;23.238;2022-11-20T01:43:21;3.42;;;1.15;;
66751;SDS011;53663;42.676;23.238;2022-11-20T01:48:17;8.40;;;1.67;;
66751;SDS011;53663;42.676;23.238;2022-11-20T01:50:44;3.78;;;1.33;;
66751;SDS011;53663;42.676;23.238;2022-11-20T01:53:11;3.97;;;1.65;;
66751;SDS011;53663;42.676;23.238;2022-11-20T01:55:43;3.65;;;1.50;;
66751;SDS011;53663;42.676;23.238;2022-11-20T01:58:13;5.00;;;1.33;;
66751;SDS011;53663;42.676;23.238;2022-11-20T02:00:38;4.78;;;1.40;;
66751;SDS011;53663;42.676;23.238;2022-11-20T02:03:07;4.22;;;1.55;;
66751;SDS011;53663;42.676;23.238;2022-11-20T02:05:38;4.80;;;1.90;;
66751;SDS011;53663;42.676;23.238;2022-11-20T02:08:09;2.70;;;1.20;;
66751;SDS011;53663;42.676;23.238;2022-11-20T02:10:34;1.25;;;1.05;;
66751;SDS011;53663;42.676;23.238;2022-11-20T02:13:00;3.45;;;1.40;;
66751;SDS011;53663;42.676;23.238;2022-11-20T02:15:45;4.97;;;1.38;;
66751;SDS011;53663;42.676;23.238;2022-11-20T02:18:11;4.13;;;1.23;;
66751;SDS011;53663;42.676;23.238;2022-11-20T02:20:40;3.17;;;1.20;;
66751;SDS011;53663;42.676;23.238;2022-11-20T02:23:11;2.47;;;1.02;;
66751;SDS011;53663;42.676;23.238;2022-11-20T02:25:39;3.88;;;1.30;;
66751;SDS011;53663;42.676;23.238;2022-11-20T02:28:08;3.83;;;1.38;;
66751;SDS011;53663;42.676;23.238;2022-11-20T02:30:33;3.13;;;1.52;;
66751;SDS011;53663;42.676;23.238;2022-11-20T02:32:59;5.57;;;1.20;;
66751;SDS011;53663;42.676;23.238;2022-11-20T02:37:50;4.00;;;1.58;;
66751;SDS011;53663;42.676;23.238;2022-11-20T02:40:22;5.43;;;1.45;;
66751;SDS011;53663;42.676;23.238;2022-11-20T02:42:51;5.78;;;1.30;;
66751;SDS011;53663;42.676;23.238;2022-11-20T02:45:17;3.95;;;1.40;;
66751;SDS011;53663;42.676;23.238;2022-11-20T02:47:42;3.75;;;1.60;;
66751;SDS011;53663;42.676;23.238;2022-11-20T02:50:08;6.22;;;1.60;;
66751;SDS011;53663;42.676;23.238;2022-11-20T02:52:34;4.15;;;1.80;;
66751;SDS011;53663;42.676;23.238;2022-11-20T02:54:59;5.50;;;1.70;;
66751;SDS011;53663;42.676;23.238;2022-11-20T02:57:25;11.93;;;2.28;;
66751;SDS011;53663;42.676;23.238;2022-11-20T02:59:51;6.82;;;1.58;;
66751;SDS011;53663;42.676;23.238;2022-11-20T03:02:16;10.98;;;1.77;;
66751;SDS011;53663;42.676;23.238;2022-11-20T03:04:42;7.95;;;1.65;;
66751;SDS011;53663;42.676;23.238;2022-11-20T03:07:07;6.82;;;2.15;;
66751;SDS011;53663;42.676;23.238;2022-11-20T03:09:34;4.85;;;1.65;;
66751;SDS011;53663;42.676;23.238;2022-11-20T03:12:00;3.58;;;1.45;;
66751;SDS011;53663;42.676;23.238;2022-11-20T03:14:25;4.70;;;1.50;;
66751;SDS011;53663;42.676;23.238;2022-11-20T03:16:51;5.10;;;1.60;;
66751;SDS011;53663;42.676;23.238;2022-11-20T03:19:17;8.57;;;1.80;;
66751;SDS011;53663;42.676;23.238;2022-11-20T03:21:42;5.55;;;1.85;;
66751;SDS011;53663;42.676;23.238;2022-11-20T03:24:08;8.63;;;1.75;;
66751;SDS011;53663;42.676;23.238;2022-11-20T03:26:34;7.57;;;1.95;;
66751;SDS011;53663;42.676;23.238;2022-11-20T03:29:00;5.68;;;1.80;;
66751;SDS011;53663;42.676;23.238;2022-11-20T03:31:29;4.22;;;1.60;;
66751;SDS011;53663;42.676;23.238;2022-11-20T03:33:59;4.07;;;1.70;;
66751;SDS011;53663;42.676;23.238;2022-11-20T03:36:25;8.32;;;1.95;;
66751;SDS011;53663;42.676;23.238;2022-11-20T03:38:52;4.72;;;1.50;;
66751;SDS011;53663;42.676;23.238;2022-11-20T03:41:23;6.63;;;2.13;;
66751;SDS011;53663;42.676;23.238;2022-11-20T03:43:54;3.78;;;1.50;;
66751;SDS011;53663;42.676;23.238;2022-11-20T03:46:20;4.63;;;1.60;;
66751;SDS011;53663;42.676;23.238;2022-11-20T03:48:46;4.13;;;1.60;;
66751;SDS011;53663;42.676;23.238;2022-11-20T03:51:14;8.43;;;1.92;;
66751;SDS011;53663;42.676;23.238;2022-11-20T03:53:41;3.22;;;1.60;;
66751;SDS011;53663;42.676;23.238;2022-11-20T03:56:09;4.32;;;1.73;;
66751;SDS011;53663;42.676;23.238;2022-11-20T03:58:35;2.33;;;1.60;;
66751;SDS011;53663;42.676;23.238;2022-11-20T04:01:06;5.78;;;1.10;;
66751;SDS011;53663;42.676;23.238;2022-11-20T04:03:34;9.25;;;1.67;;
66751;SDS011;53663;42.676;23.238;2022-11-20T04:06:02;6.80;;;1.83;;
66751;SDS011;53663;42.676;23.238;2022-11-20T04:08:38;6.20;;;1.58;;
66751;SDS011;53663;42.676;23.238;2022-11-20T04:11:08;5.43;;;2.10;;
66751;SDS011;53663;42.676;23.238;2022-11-20T04:13:37;7.00;;;1.58;;
66751;SDS011;53663;42.676;23.238;2022-11-20T04:16:04;4.20;;;1.55;;
66751;SDS011;53663;42.676;23.238;2022-11-20T04:18:30;4.15;;;1.52;;
66751;SDS011;53663;42.676;23.238;2022-11-20T04:20:56;3.70;;;1.38;;
66751;SDS011;53663;42.676;23.238;2022-11-20T04:23:22;3.85;;;1.33;;
66751;SDS011;53663;42.676;23.238;2022-11-20T04:25:48;2.22;;;1.20;;
66751;SDS011;53663;42.676;23.238;2022-11-20T04:28:14;4.43;;;1.23;;
66751;SDS011;53663;42.676;23.238;2022-11-20T04:30:39;5.47;;;1.60;;
66751;SDS011;53663;42.676;23.238;2022-11-20T04:33:05;3.10;;;1.20;;
66751;SDS011;53663;42.676;23.238;2022-11-20T04:35:33;5.78;;;1.27;;
66751;SDS011;53663;42.676;23.238;2022-11-20T04:37:59;4.47;;;1.40;;
66751;SDS011;53663;42.676;23.238;2022-11-20T04:40:24;3.00;;;1.52;;
66751;SDS011;53663;42.676;23.238;2022-11-20T04:42:50;6.53;;;1.58;;
66751;SDS011;53663;42.676;23.238;2022-11-20T04:45:15;2.80;;;1.40;;
66751;SDS011;53663;42.676;23.238;2022-11-20T04:47:41;5.35;;;1.88;;
66751;SDS011;53663;42.676;23.238;2022-11-20T04:50:06;2.13;;;1.23;;
66751;SDS011;53663;42.676;23.238;2022-11-20T04:52:32;2.45;;;1.35;;
66751;SDS011;53663;42.676;23.238;2022-11-20T04:54:58;4.63;;;1.02;;
66751;SDS011;53663;42.676;23.238;2022-11-20T04:57:23;3.83;;;1.40;;
66751;SDS011;53663;42.676;23.238;2022-11-20T04:59:49;3.70;;;1.38;;
66751;SDS011;53663;42.676;23.238;2022-11-20T05:02:14;2.35;;;1.60;;
66751;SDS011;53663;42.676;23.238;2022-11-20T05:04:40;4.60;;;1.33;;
66751;SDS011;53663;42.676;23.238;2022-11-20T05:07:05;2.35;;;1.30;;
66751;SDS011;53663;42.676;23.238;2022-11-20T05:09:30;3.65;;;1.42;;
66751;SDS011;53663;42.676;23.238;2022-11-20T05:11:56;2.15;;;1.13;;
66751;SDS011;53663;42.676;23.238;2022-11-20T05:14:22;3.28;;;1.42;;
66751;SDS011;53663;42.676;23.238;2022-11-20T05:16:47;3.65;;;1.25;;
66751;SDS011;53663;42.676;23.238;2022-11-20T05:19:13;2.97;;;1.23;;
66751;SDS011;53663;42.676;23.238;2022-11-20T05:21:38;2.50;;;1.30;;
66751;SDS011;53663;42.676;23.238;2022-11-20T05:24:04;3.05;;;1.50;;
66751;SDS011;53663;42.676;23.238;2022-11-20T05:26:30;2.20;;;1.30;;
66751;SDS011;53663;42.676;23.238;2022-11-20T05:28:56;6.70;;;1.40;;
66751;SDS011;53663;42.676;23.238;2022-11-20T05:31:22;3.95;;;1.08;;
66751;SDS011;53663;42.676;23.238;2022-11-20T05:33:49;2.20;;;1.30;;
66751;SDS011;53663;42.676;23.238;2022-11-20T05:36:15;9.77;;;1.83;;
66751;SDS011;53663;42.676;23.238;2022-11-20T05:38:41;4.53;;;1.33;;
66751;SDS011;53663;42.676;23.238;2022-11-20T05:41:17;2.55;;;1.30;;
66751;SDS011;53663;42.676;23.238;2022-11-20T05:43:45;2.45;;;1.30;;
66751;SDS011;53663;42.676;23.238;2022-11-20T05:46:12;8.35;;;1.75;;
66751;SDS011;53663;42.676;23.238;2022-11-20T05:48:40;3.15;;;1.40;;
66751;SDS011;53663;42.676;23.238;2022-11-20T05:51:08;3.00;;;1.80;;
66751;SDS011;53663;42.676;23.238;2022-11-20T05:53:36;2.80;;;1.10;;
66751;SDS011;53663;42.676;23.238;2022-11-20T05:56:06;4.10;;;1.50;;
66751;SDS011;53663;42.676;23.238;2022-11-20T05:58:35;3.08;;;1.40;;
66751;SDS011;53663;42.676;23.238;2022-11-20T06:01:14;5.72;;;1.33;;
66751;SDS011;53663;42.676;23.238;2022-11-20T06:03:44;6.32;;;2.00;;
66751;SDS011;53663;42.676;23.238;2022-11-20T06:06:13;3.00;;;1.40;;
66751;SDS011;53663;42.676;23.238;2022-11-20T06:08:39;4.82;;;1.42;;
66751;SDS011;53663;42.676;23.238;2022-11-20T06:11:06;8.35;;;1.85;;
66751;SDS011;53663;42.676;23.238;2022-11-20T06:13:33;1.65;;;1.15;;
66751;SDS011;53663;42.676;23.238;2022-11-20T06:15:59;4.45;;;1.48;;
66751;SDS011;53663;42.676;23.238;2022-11-20T06:18:26;12.15;;;1.77;;
66751;SDS011;53663;42.676;23.238;2022-11-20T06:20:58;7.93;;;1.70;;
66751;SDS011;53663;42.676;23.238;2022-11-20T06:23:29;3.97;;;1.30;;
66751;SDS011;53663;42.676;23.238;2022-11-20T06:25:55;8.50;;;1.73;;
66751;SDS011;53663;42.676;23.238;2022-11-20T06:28:20;5.18;;;1.63;;
66751;SDS011;53663;42.676;23.238;2022-11-20T06:30:47;7.60;;;1.60;;
66751;SDS011;53663;42.676;23.238;2022-11-20T06:33:12;5.65;;;1.85;;
66751;SDS011;53663;42.676;23.238;2022-11-20T06:35:38;4.32;;;1.70;;
66751;SDS011;53663;42.676;23.238;2022-11-20T06:38:03;4.78;;;1.50;;
66751;SDS011;53663;42.676;23.238;2022-11-20T06:40:29;5.07;;;1.50;;
66751;SDS011;53663;42.676;23.238;2022-11-20T06:42:54;3.45;;;1.70;;
66751;SDS011;53663;42.676;23.238;2022-11-20T06:45:20;5.10;;;1.40;;
66751;SDS011;53663;42.676;23.238;2022-11-20T06:47:46;9.23;;;1.70;;
66751;SDS011;53663;42.676;23.238;2022-11-20T06:50:12;3.05;;;1.30;;
66751;SDS011;53663;42.676;23.238;2022-11-20T06:52:38;2.45;;;1.40;;
66751;SDS011;53663;42.676;23.238;2022-11-20T06:55:03;7.60;;;1.20;;
66751;SDS011;53663;42.676;23.238;2022-11-20T06:57:29;2.50;;;1.23;;
66751;SDS011;53663;42.676;23.238;2022-11-20T06:59:55;4.32;;;1.35;;
66751;SDS011;53663;42.676;23.238;2022-11-20T07:02:20;4.15;;;1.30;;
66751;SDS011;53663;42.676;23.238;2022-11-20T07:04:46;5.18;;;1.52;;
66751;SDS011;53663;42.676;23.238;2022-11-20T07:07:11;4.75;;;1.42;;
66751;SDS011;53663;42.676;23.238;2022-11-20T07:09:37;5.10;;;1.30;;
66751;SDS011;53663;42.676;23.238;2022-11-20T07:12:02;2.47;;;1.20;;
66751;SDS011;53663;42.676;23.238;2022-11-20T07:14:28;5.32;;;1.60;;
66751;SDS011;53663;42.676;23.238;2022-11-20T07:16:53;2.78;;;1.35;;
66751;SDS011;53663;42.676;23.238;2022-11-20T07:19:19;5.72;;;1.73;;
66751;SDS011;53663;42.676;23.238;2022-11-20T07:21:45;7.15;;;1.67;;
66751;SDS011;53663;42.676;23.238;2022-11-20T07:24:10;3.83;;;1.30;;
66751;SDS011;53663;42.676;23.238;2022-11-20T07:26:36;6.43;;;1.50;;
66751;SDS011;53663;42.676;23.238;2022-11-20T07:29:01;5.50;;;1.40;;
66751;SDS011;53663;42.676;23.238;2022-11-20T07:31:27;5.93;;;1.60;;
66751;SDS011;53663;42.676;23.238;2022-11-20T07:33:52;6.30;;;1.90;;
66751;SDS011;53663;42.676;23.238;2022-11-20T07:36:17;4.53;;;1.38;;
66751;SDS011;53663;42.676;23.238;2022-11-20T07:38:43;6.28;;;1.67;;
66751;SDS011;53663;42.676;23.238;2022-11-20T07:41:08;4.70;;;1.55;;
66751;SDS011;53663;42.676;23.238;2022-11-20T07:43:34;4.88;;;1.60;;
66751;SDS011;53663;42.676;23.238;2022-11-20T07:46:00;4.82;;;1.70;;
66751;SDS011;53663;42.676;23.238;2022-11-20T07:48:26;4.28;;;1.88;;
66751;SDS011;53663;42.676;23.238;2022-11-20T07:50:55;5.85;;;1.83;;
66751;SDS011;53663;42.676;23.238;2022-11-20T07:53:21;5.47;;;1.23;;
66751;SDS011;53663;42.676;23.238;2022-11-20T07:55:47;5.68;;;1.67;;
66751;SDS011;53663;42.676;23.238;2022-11-20T07:58:13;8.57;;;1.75;;
66751;SDS011;53663;42.676;23.238;2022-11-20T08:00:41;9.07;;;1.85;;
66751;SDS011;53663;42.676;23.238;2022-11-20T08:03:07;8.38;;;1.75;;
66751;SDS011;53663;42.676;23.238;2022-11-20T08:05:32;5.75;;;1.60;;
66751;SDS011;53663;42.676;23.238;2022-11-20T08:07:58;4.35;;;1.95;;
66751;SDS011;53663;42.676;23.238;2022-11-20T08:10:24;8.85;;;1.40;;
66751;SDS011;53663;42.676;23.238;2022-11-20T08:12:50;6.78;;;1.70;;
66751;SDS011;53663;42.676;23.238;2022-11-20T08:15:36;8.07;;;1.55;;
66751;SDS011;53663;42.676;23.238;2022-11-20T08:18:06;10.85;;;2.22;;
66751;SDS011;53663;42.676;23.238;2022-11-20T08:20:36;5.90;;;1.75;;
66751;SDS011;53663;42.676;23.238;2022-11-20T08:23:03;7.18;;;2.17;;
66751;SDS011;53663;42.676;23.238;2022-11-20T08:25:31;4.80;;;1.80;;
66751;SDS011;53663;42.676;23.238;2022-11-20T08:27:58;6.85;;;1.90;;
66751;SDS011;53663;42.676;23.238;2022-11-20T08:30:24;5.00;;;1.88;;
66751;SDS011;53663;42.676;23.238;2022-11-20T08:32:50;5.63;;;1.55;;
66751;SDS011;53663;42.676;23.238;2022-11-20T08:35:15;6.32;;;2.00;;
66751;SDS011;53663;42.676;23.238;2022-11-20T08:37:41;13.57;;;2.47;;
66751;SDS011;53663;42.676;23.238;2022-11-20T08:40:10;7.60;;;1.83;;
66751;SDS011;53663;42.676;23.238;2022-11-20T08:42:36;11.93;;;2.10;;
66751;SDS011;53663;42.676;23.238;2022-11-20T08:45:02;11.57;;;2.65;;
66751;SDS011;53663;42.676;23.238;2022-11-20T08:47:28;8.10;;;2.35;;
66751;SDS011;53663;42.676;23.238;2022-11-20T08:49:53;12.93;;;1.90;;
66751;SDS011;53663;42.676;23.238;2022-11-20T08:52:19;16.02;;;2.78;;
66751;SDS011;53663;42.676;23.238;2022-11-20T08:54:44;9.55;;;2.70;;
66751;SDS011;53663;42.676;23.238;2022-11-20T08:57:10;8.98;;;2.22;;
66751;SDS011;53663;42.676;23.238;2022-11-20T08:59:35;8.75;;;2.05;;
66751;SDS011;53663;42.676;23.238;2022-11-20T09:02:01;11.27;;;2.40;;
66751;SDS011;53663;42.676;23.238;2022-11-20T09:04:26;14.70;;;3.10;;
66751;SDS011;53663;42.676;23.238;2022-11-20T09:06:52;10.30;;;2.60;;
66751;SDS011;53663;42.676;23.238;2022-11-20T09:09:17;11.30;;;2.17;;
66751;SDS011;53663;42.676;23.238;2022-11-20T09:11:46;7.57;;;2.25;;
66751;SDS011;53663;42.676;23.238;2022-11-20T09:14:12;9.48;;;3.17;;
66751;SDS011;53663;42.676;23.238;2022-11-20T09:16:37;6.43;;;2.42;;
66751;SDS011;53663;42.676;23.238;2022-11-20T09:19:02;6.45;;;2.47;;
66751;SDS011;53663;42.676;23.238;2022-11-20T09:21:28;7.40;;;2.35;;
66751;SDS011;53663;42.676;23.238;2022-11-20T09:23:53;4.93;;;2.10;;
66751;SDS011;53663;42.676;23.238;2022-11-20T09:26:19;9.55;;;2.65;;
66751;SDS011;53663;42.676;23.238;2022-11-20T09:28:44;7.97;;;2.50;;
66751;SDS011;53663;42.676;23.238;2022-11-20T09:31:24;9.85;;;2.63;;
66751;SDS011;53663;42.676;23.238;2022-11-20T09:33:51;5.78;;;1.85;;
66751;SDS011;53663;42.676;23.238;2022-11-20T09:36:17;10.10;;;2.22;;
66751;SDS011;53663;42.676;23.238;2022-11-20T09:38:46;4.93;;;2.03;;
66751;SDS011;53663;42.676;23.238;2022-11-20T09:47:00;8.70;;;2.25;;
66751;SDS011;53663;42.676;23.238;2022-11-20T09:54:58;10.57;;;2.20;;
66751;SDS011;53663;42.676;23.238;2022-11-20T09:57:31;11.85;;;3.03;;
66751;SDS011;53663;42.676;23.238;2022-11-20T10:00:04;7.00;;;2.28;;
66751;SDS011;53663;42.676;23.238;2022-11-20T10:02:38;7.97;;;2.70;;
66751;SDS011;53663;42.676;23.238;2022-11-20T10:10:49;9.75;;;2.42;;
66751;SDS011;53663;42.676;23.238;2022-11-20T10:22:09;19.25;;;3.53;;
66751;SDS011;53663;42.676;23.238;2022-11-20T10:27:32;11.30;;;2.55;;
66751;SDS011;53663;42.676;23.238;2022-11-20T10:30:12;14.88;;;3.15;;
66751;SDS011;53663;42.676;23.238;2022-11-20T10:32:40;10.10;;;2.90;;
66751;SDS011;53663;42.676;23.238;2022-11-20T10:37:46;8.20;;;2.50;;
66751;SDS011;53663;42.676;23.238;2022-11-20T10:40:18;12.35;;;2.42;;
66751;SDS011;53663;42.676;23.238;2022-11-20T10:42:46;11.50;;;2.70;;
66751;SDS011;53663;42.676;23.238;2022-11-20T10:45:44;14.40;;;2.80;;
66751;SDS011;53663;42.676;23.238;2022-11-20T10:48:15;14.50;;;3.20;;
66751;SDS011;53663;42.676;23.238;2022-11-20T10:50:53;24.60;;;3.15;;
66751;SDS011;53663;42.676;23.238;2022-11-20T10:54:43;11.65;;;3.30;;
66751;SDS011;53663;42.676;23.238;2022-11-20T10:56:39;7.25;;;1.80;;
66751;SDS011;53663;42.676;23.238;2022-11-20T10:59:12;6.55;;;1.90;;
66751;SDS011;53663;42.676;23.238;2022-11-20T11:02:14;7.10;;;2.25;;
66751;SDS011;53663;42.676;23.238;2022-11-20T11:04:51;9.65;;;2.55;;
66751;SDS011;53663;42.676;23.238;2022-11-20T11:10:12;9.23;;;2.67;;
66751;SDS011;53663;42.676;23.238;2022-11-20T11:12:46;3.75;;;1.40;;
66751;SDS011;53663;42.676;23.238;2022-11-20T11:15:14;5.63;;;1.52;;
66751;SDS011;53663;42.676;23.238;2022-11-20T11:17:52;1.55;;;1.02;;
66751;SDS011;53663;42.676;23.238;2022-11-20T11:22:48;4.35;;;1.50;;
66751;SDS011;53663;42.676;23.238;2022-11-20T11:25:35;2.03;;;1.10;;
66751;SDS011;53663;42.676;23.238;2022-11-20T11:28:21;7.47;;;1.80;;
66751;SDS011;53663;42.676;23.238;2022-11-20T11:30:49;3.53;;;1.38;;
66751;SDS011;53663;42.676;23.238;2022-11-20T11:33:19;4.28;;;1.08;;
66751;SDS011;53663;42.676;23.238;2022-11-20T11:35:55;6.82;;;1.50;;
66751;SDS011;53663;42.676;23.238;2022-11-20T11:38:34;5.50;;;1.60;;
66751;SDS011;53663;42.676;23.238;2022-11-20T11:41:06;7.95;;;2.97;;
66751;SDS011;53663;42.676;23.238;2022-11-20T11:43:35;4.90;;;1.77;;
66751;SDS011;53663;42.676;23.238;2022-11-20T11:51:52;4.75;;;1.60;;
66751;SDS011;53663;42.676;23.238;2022-11-20T11:54:27;6.70;;;1.52;;
66751;SDS011;53663;42.676;23.238;2022-11-20T11:56:54;2.60;;;1.10;;
66751;SDS011;53663;42.676;23.238;2022-11-20T11:59:24;4.35;;;1.30;;
66751;SDS011;53663;42.676;23.238;2022-11-20T12:02:13;2.45;;;1.20;;
66751;SDS011;53663;42.676;23.238;2022-11-20T12:04:52;6.05;;;1.90;;
66751;SDS011;53663;42.676;23.238;2022-11-20T12:07:46;6.43;;;1.38;;
66751;SDS011;53663;42.676;23.238;2022-11-20T12:16:18;7.80;;;1.40;;
66751;SDS011;53663;42.676;23.238;2022-11-20T12:18:45;3.15;;;1.55;;
66751;SDS011;53663;42.676;23.238;2022-11-20T12:29:32;8.32;;;1.55;;
66751;SDS011;53663;42.676;23.238;2022-11-20T12:32:41;3.28;;;1.10;;
66751;SDS011;53663;42.676;23.238;2022-11-20T12:43:20;1.65;;;1.25;;
66751;SDS011;53663;42.676;23.238;2022-11-20T13:05:17;4.50;;;2.00;;
66751;SDS011;53663;42.676;23.238;2022-11-20T13:07:47;4.93;;;1.80;;
66751;SDS011;53663;42.676;23.238;2022-11-20T13:10:21;7.68;;;2.10;;
66751;SDS011;53663;42.676;23.238;2022-11-20T13:13:23;13.48;;;2.50;;
66751;SDS011;53663;42.676;23.238;2022-11-20T13:15:54;6.88;;;2.00;;
66751;SDS011;53663;42.676;23.238;2022-11-20T13:18:25;6.90;;;2.10;;
66751;SDS011;53663;42.676;23.238;2022-11-20T13:20:51;7.82;;;3.40;;
66751;SDS011;53663;42.676;23.238;2022-11-20T13:23:26;8.32;;;3.40;;
66751;SDS011;53663;42.676;23.238;2022-11-20T13:26:03;12.00;;;5.03;;
66751;SDS011;53663;42.676;23.238;2022-11-20T13:28:30;8.60;;;3.70;;
66751;SDS011;53663;42.676;23.238;2022-11-20T13:30:57;11.48;;;4.28;;
66751;SDS011;53663;42.676;23.238;2022-11-20T13:33:43;10.77;;;4.47;;
66751;SDS011;53663;42.676;23.238;2022-11-20T13:36:23;11.55;;;3.72;;
66751;SDS011;53663;42.676;23.238;2022-11-20T13:38:51;11.40;;;4.30;;
66751;SDS011;53663;42.676;23.238;2022-11-20T13:41:29;10.18;;;2.95;;
66751;SDS011;53663;42.676;23.238;2022-11-20T13:46:36;7.75;;;2.60;;
66751;SDS011;53663;42.676;23.238;2022-11-20T13:49:30;10.93;;;3.05;;
66751;SDS011;53663;42.676;23.238;2022-11-20T14:02:40;5.38;;;2.45;;
66751;SDS011;53663;42.676;23.238;2022-11-20T14:05:13;16.02;;;3.10;;
66751;SDS011;53663;42.676;23.238;2022-11-20T14:07:45;14.55;;;3.88;;
66751;SDS011;53663;42.676;23.238;2022-11-20T14:10:27;12.90;;;4.00;;
66751;SDS011;53663;42.676;23.238;2022-11-20T14:12:54;10.93;;;4.55;;
66751;SDS011;53663;42.676;23.238;2022-11-20T14:17:55;6.50;;;2.70;;
66751;SDS011;53663;42.676;23.238;2022-11-20T14:20:23;6.10;;;2.10;;
66751;SDS011;53663;42.676;23.238;2022-11-20T14:22:52;7.60;;;2.20;;
66751;SDS011;53663;42.676;23.238;2022-11-20T14:25:19;3.15;;;1.30;;
66751;SDS011;53663;42.676;23.238;2022-11-20T14:27:55;3.88;;;1.60;;
66751;SDS011;53663;42.676;23.238;2022-11-20T14:30:24;7.45;;;1.70;;
66751;SDS011;53663;42.676;23.238;2022-11-20T14:32:51;6.57;;;1.70;;
66751;SDS011;53663;42.676;23.238;2022-11-20T14:35:26;6.25;;;2.00;;
66751;SDS011;53663;42.676;23.238;2022-11-20T14:37:54;4.15;;;1.80;;
66751;SDS011;53663;42.676;23.238;2022-11-20T14:40:24;3.70;;;1.73;;
66751;SDS011;53663;42.676;23.238;2022-11-20T14:42:53;5.30;;;2.40;;
66751;SDS011;53663;42.676;23.238;2022-11-20T14:45:20;4.82;;;2.47;;
66751;SDS011;53663;42.676;23.238;2022-11-20T14:47:46;5.00;;;2.10;;
66751;SDS011;53663;42.676;23.238;2022-11-20T14:50:16;4.82;;;2.50;;
66751;SDS011;53663;42.676;23.238;2022-11-20T14:52:55;4.95;;;2.30;;
66751;SDS011;53663;42.676;23.238;2022-11-20T14:58:03;6.82;;;3.95;;
66751;SDS011;53663;42.676;23.238;2022-11-20T15:00:29;6.45;;;3.72;;
66751;SDS011;53663;42.676;23.238;2022-11-20T15:02:56;9.10;;;4.65;;
66751;SDS011;53663;42.676;23.238;2022-11-20T15:05:23;7.63;;;2.35;;
66751;SDS011;53663;42.676;23.238;2022-11-20T15:07:52;5.40;;;2.50;;
66751;SDS011;53663;42.676;23.238;2022-11-20T15:10:30;4.93;;;2.17;;
66751;SDS011;53663;42.676;23.238;2022-11-20T15:13:03;4.72;;;1.83;;
66751;SDS011;53663;42.676;23.238;2022-11-20T15:15:39;2.92;;;1.92;;
66751;SDS011;53663;42.676;23.238;2022-11-20T15:18:16;4.00;;;1.98;;
66751;SDS011;53663;42.676;23.238;2022-11-20T15:20:44;6.10;;;2.15;;
66751;SDS011;53663;42.676;23.238;2022-11-20T15:23:11;2.85;;;1.70;;
66751;SDS011;53663;42.676;23.238;2022-11-20T15:25:39;4.22;;;2.30;;
66751;SDS011;53663;42.676;23.238;2022-11-20T15:28:08;4.75;;;1.70;;
66751;SDS011;53663;42.676;23.238;2022-11-20T15:30:46;5.90;;;2.67;;
66751;SDS011;53663;42.676;23.238;2022-11-20T15:33:13;10.45;;;5.22;;
66751;SDS011;53663;42.676;23.238;2022-11-20T15:35:40;12.45;;;4.93;;
66751;SDS011;53663;42.676;23.238;2022-11-20T15:38:06;11.93;;;3.58;;
66751;SDS011;53663;42.676;23.238;2022-11-20T15:40:31;16.23;;;4.35;;
66751;SDS011;53663;42.676;23.238;2022-11-20T15:42:57;14.13;;;4.97;;
66751;SDS011;53663;42.676;23.238;2022-11-20T15:45:29;11.77;;;3.53;;
66751;SDS011;53663;42.676;23.238;2022-11-20T15:47:58;10.20;;;4.90;;
66751;SDS011;53663;42.676;23.238;2022-11-20T15:50:25;6.13;;;2.70;;
66751;SDS011;53663;42.676;23.238;2022-11-20T15:55:20;9.50;;;3.78;;
66751;SDS011;53663;42.676;23.238;2022-11-20T15:57:46;4.90;;;2.88;;
66751;SDS011;53663;42.676;23.238;2022-11-20T16:00:11;7.38;;;3.33;;
66751;SDS011;53663;42.676;23.238;2022-11-20T16:02:37;10.43;;;4.97;;
66751;SDS011;53663;42.676;23.238;2022-11-20T16:05:03;9.77;;;2.40;;
66751;SDS011;53663;42.676;23.238;2022-11-20T16:07:29;4.68;;;1.85;;
66751;SDS011;53663;42.676;23.238;2022-11-20T16:09:55;3.10;;;2.03;;
66751;SDS011;53663;42.676;23.238;2022-11-20T16:12:21;4.88;;;2.55;;
66751;SDS011;53663;42.676;23.238;2022-11-20T16:15:07;13.90;;;4.70;;
66751;SDS011;53663;42.676;23.238;2022-11-20T16:17:52;3.72;;;1.95;;
66751;SDS011;53663;42.676;23.238;2022-11-20T16:20:17;3.85;;;2.03;;
66751;SDS011;53663;42.676;23.238;2022-11-20T16:22:43;4.80;;;2.70;;
66751;SDS011;53663;42.676;23.238;2022-11-20T16:25:08;10.38;;;5.00;;
66751;SDS011;53663;42.676;23.238;2022-11-20T16:27:34;13.57;;;7.38;;
66751;SDS011;53663;42.676;23.238;2022-11-20T16:29:59;8.55;;;5.40;;
66751;SDS011;53663;42.676;23.238;2022-11-20T16:32:25;8.98;;;4.60;;
66751;SDS011;53663;42.676;23.238;2022-11-20T16:34:50;9.38;;;4.82;;
66751;SDS011;53663;42.676;23.238;2022-11-20T16:37:16;10.18;;;6.35;;
66751;SDS011;53663;42.676;23.238;2022-11-20T16:39:41;10.85;;;6.03;;